Kolobrzeg, Poland
Current Conditions -  °F | °C
As of 6:20 PM on Wednesday 26 Nov 2014 (Local Time) from EDAH Reporting Station
Scattered Clouds Scattered Clouds  
Wind Chill: 32°   Ceiling: Unl
Heat Index: 37°   Visibility: 6mi
Dew Point: 36°   Wind: 7mph
Humidity: 93%   Direction: 110°ESE
Pressure: 30.24"   Gusts: NA
Location:  54.19°N, 15.57°E
Report Text: EDAH 261620Z 11006KT 9999 SCT014 03/02 Q1024
Loading
Personal Weather Stations






























Interactive Weather Map New forecast layout! Learn more

10-Day Weather Forecast

Advertisements
Track Severe Weather on mobile